Andersonville, Virginia
Current Conditions -  °F | °C
As of 9:15 AM on Thursday 18 Dec 2014 (Local Time) from KFVX Reporting Station
Clear Clear  
Wind Chill: 42°   Ceiling: Unl
Heat Index: 42°   Visibility: 10mi
Dew Point: 28°   Wind: 3mph
Humidity: 56%   Direction: 290°WNW
Pressure: 30.16"   Gusts: NA
Location:  37.47°N, 78.57°W
Report Text: KFVX 181415Z AUTO 29003KT 10SM CLR 06/M02 A3016 RMK AO2 T00561025
Loading
Personal Weather Stations






























Interactive Weather Map New forecast layout! Learn more

10-Day Weather Forecast

Advertisements
Track Severe Weather on mobile